createdAt,value
2019-02-22T00:01:36.978Z,86.33
2019-02-22T00:04:05.261Z,86.26
2019-02-22T00:06:33.533Z,84.93
2019-02-22T00:09:01.804Z,85.92
2019-02-22T00:11:30.155Z,86.94
2019-02-22T00:13:58.415Z,86.55
2019-02-22T00:16:26.697Z,86.42
2019-02-22T00:18:54.962Z,88.89
2019-02-22T00:21:24.320Z,87.52
2019-02-22T00:23:52.597Z,85.42
2019-02-22T00:26:20.880Z,86.81
2019-02-22T00:28:49.161Z,86.80
2019-02-22T00:31:17.441Z,87.45
2019-02-22T00:33:45.736Z,87.47
2019-02-22T00:36:14.200Z,87.99
2019-02-22T00:38:42.483Z,85.48
2019-02-22T00:41:10.755Z,87.97
2019-02-22T00:43:39.034Z,87.84
2019-02-22T00:46:07.308Z,84.84
2019-02-22T00:48:35.581Z,85.93
2019-02-22T00:51:03.875Z,85.60
2019-02-22T00:53:32.144Z,85.12
2019-02-22T00:56:00.417Z,84.52
2019-02-22T00:58:28.710Z,85.17
2019-02-22T01:00:56.992Z,84.56
2019-02-22T01:03:25.255Z,85.26
2019-02-22T01:05:53.535Z,87.96
2019-02-22T01:08:21.817Z,87.32
2019-02-22T01:10:50.139Z,86.69
2019-02-22T01:13:18.398Z,87.40
2019-02-22T01:15:46.719Z,87.56
2019-02-22T01:18:14.984Z,84.84
2019-02-22T01:20:53.754Z,83.44
2019-02-22T01:23:13.267Z,85.02
2019-02-22T01:25:41.546Z,83.89
2019-02-22T01:28:09.831Z,84.66
2019-02-22T01:30:38.111Z,85.93
2019-02-22T01:33:06.398Z,85.95
2019-02-22T01:35:34.715Z,84.49
2019-02-22T01:38:03.004Z,83.61
2019-02-22T01:40:42.672Z,82.28
2019-02-22T01:43:01.361Z,84.60
2019-02-22T01:45:29.650Z,85.60
2019-02-22T01:47:57.930Z,85.37
2019-02-22T01:50:26.290Z,85.80
2019-02-22T01:52:54.551Z,86.81
2019-02-22T01:55:22.898Z,85.53
2019-02-22T01:57:51.173Z,85.03
2019-02-22T02:00:19.448Z,86.80
2019-02-22T02:02:47.732Z,85.64
2019-02-22T02:05:16.005Z,86.24
2019-02-22T02:07:44.299Z,86.92
2019-02-22T02:10:12.559Z,88.13
2019-02-22T02:12:40.843Z,88.54
2019-02-22T02:15:09.184Z,85.92
2019-02-22T02:17:37.563Z,85.56
2019-02-22T02:20:07.309Z,85.79
2019-02-22T02:22:35.638Z,87.40
2019-02-22T02:25:04.380Z,87.52
2019-02-22T02:27:32.660Z,86.00
2019-02-22T02:30:00.977Z,87.32
2019-02-22T02:32:29.224Z,87.84
2019-02-22T02:34:57.516Z,87.54
2019-02-22T02:37:25.801Z,87.17
2019-02-22T02:39:54.063Z,88.17
2019-02-22T02:42:22.345Z,87.94
2019-02-22T02:44:50.609Z,87.94
2019-02-22T02:47:18.909Z,84.75
2019-02-22T02:49:47.175Z,86.85
2019-02-22T02:52:15.442Z,85.59
2019-02-22T02:54:43.722Z,84.27
2019-02-22T02:57:12.004Z,87.72
2019-02-22T02:59:40.278Z,88.07
2019-02-22T03:02:10.181Z,87.77
2019-02-22T03:04:38.455Z,90.27
2019-02-22T03:07:08.361Z,88.52
2019-02-22T03:09:36.637Z,88.16
2019-02-22T03:12:04.987Z,88.23
2019-02-22T03:14:33.281Z,86.97
2019-02-22T03:17:01.765Z,85.95
2019-02-22T03:19:30.046Z,87.49
2019-02-22T03:21:58.326Z,86.57
2019-02-22T03:24:26.615Z,89.66
2019-02-22T03:26:54.883Z,90.11
2019-02-22T03:29:23.194Z,91.29
2019-02-22T03:31:51.484Z,90.33
2019-02-22T03:34:19.755Z,90.77
2019-02-22T03:36:48.053Z,90.12
2019-02-22T03:39:16.324Z,91.03
2019-02-22T03:41:44.775Z,92.08
2019-02-22T03:44:13.046Z,90.75
2019-02-22T03:46:41.324Z,91.00
2019-02-22T03:49:09.587Z,93.44
2019-02-22T03:51:37.893Z,90.81
2019-02-22T03:54:06.158Z,91.71
2019-02-22T03:56:34.422Z,93.77
2019-02-22T03:59:02.678Z,93.14
2019-02-22T04:01:30.979Z,92.85
2019-02-22T04:03:59.256Z,91.78
2019-02-22T04:06:27.519Z,91.99
2019-02-22T04:08:55.800Z,88.29
2019-02-22T04:11:24.065Z,80.82
2019-02-22T04:13:52.402Z,89.30
2019-02-22T04:16:20.691Z,89.83
2019-02-22T04:18:48.967Z,90.90
2019-02-22T04:21:17.227Z,90.32
2019-02-22T04:23:45.559Z,89.27
2019-02-22T04:26:13.783Z,90.20
2019-02-22T04:28:42.050Z,77.76
2019-02-22T04:31:10.329Z,72.19
2019-02-22T04:33:38.791Z,70.43
2019-02-22T04:36:07.124Z,72.80
2019-02-22T04:38:35.344Z,71.01
2019-02-22T04:41:03.613Z,70.79
2019-02-22T04:43:31.902Z,69.19
2019-02-22T04:46:00.178Z,68.16
2019-02-22T04:48:28.552Z,83.35
2019-02-22T04:50:56.785Z,86.81
2019-02-22T04:53:25.064Z,86.43
2019-02-22T04:55:53.330Z,88.95
2019-02-22T04:58:21.581Z,91.42
2019-02-22T05:00:49.854Z,91.04
2019-02-22T05:03:18.126Z,91.02
2019-02-22T05:05:46.432Z,90.77
2019-02-22T05:08:14.700Z,91.85
2019-02-22T05:10:43.007Z,92.04
2019-02-22T05:13:11.378Z,93.16
2019-02-22T05:15:39.666Z,94.16
2019-02-22T05:18:07.940Z,93.06
2019-02-22T05:20:36.271Z,92.93
2019-02-22T05:23:07.445Z,92.08
2019-02-22T05:25:34.569Z,91.72
2019-02-22T05:28:02.904Z,93.54
2019-02-22T05:30:31.187Z,96.00
2019-02-22T05:32:59.466Z,94.89
2019-02-22T05:35:27.769Z,95.07
2019-02-22T05:37:56.064Z,94.63
2019-02-22T05:40:24.328Z,93.76
2019-02-22T05:42:52.628Z,95.95
2019-02-22T05:45:20.921Z,94.84
2019-02-22T05:47:49.207Z,96.61
2019-02-22T05:50:17.477Z,97.25
2019-02-22T05:52:45.795Z,96.17
2019-02-22T05:55:14.048Z,95.62
2019-02-22T05:57:42.324Z,96.49
2019-02-22T06:00:10.659Z,96.73
2019-02-22T06:02:38.962Z,95.31
2019-02-22T06:05:07.420Z,95.18
2019-02-22T06:07:35.717Z,96.44
2019-02-22T06:10:05.749Z,94.65
2019-02-22T06:12:35.048Z,93.55
2019-02-22T06:15:04.255Z,92.99
2019-02-22T06:17:32.553Z,94.58
2019-02-22T06:20:00.893Z,94.25
2019-02-22T06:22:30.060Z,93.17
2019-02-22T06:24:58.524Z,93.76
2019-02-22T06:27:26.817Z,93.39
2019-02-22T06:29:55.116Z,95.56
2019-02-22T06:32:23.404Z,95.32
2019-02-22T06:34:51.691Z,93.28
2019-02-22T06:37:19.987Z,92.51
2019-02-22T06:39:48.303Z,95.67
2019-02-22T06:42:16.586Z,95.47
2019-02-22T06:44:44.880Z,94.04
2019-02-22T06:47:13.341Z,93.97
2019-02-22T06:49:41.620Z,94.78
2019-02-22T06:52:09.887Z,94.43
2019-02-22T06:54:38.170Z,93.99
2019-02-22T06:57:06.460Z,94.30
2019-02-22T06:59:34.725Z,95.70
2019-02-22T07:02:03.024Z,93.48
2019-02-22T07:04:31.290Z,93.08
2019-02-22T07:06:59.567Z,91.83
2019-02-22T07:09:27.869Z,92.14
2019-02-22T07:12:03.481Z,94.64
2019-02-22T07:14:31.768Z,97.55
2019-02-22T07:17:00.040Z,95.61
2019-02-22T07:19:28.419Z,97.43
2019-02-22T07:21:56.699Z,97.37
2019-02-22T07:24:24.969Z,94.00
2019-02-22T07:26:53.250Z,95.00
2019-02-22T07:29:22.344Z,92.93
2019-02-22T07:31:50.799Z,93.52
2019-02-22T07:34:19.207Z,94.72
2019-02-22T07:36:47.489Z,93.73
2019-02-22T07:39:26.989Z,92.36
2019-02-22T07:41:45.765Z,93.82
2019-02-22T07:44:14.054Z,94.20
2019-02-22T07:46:42.320Z,94.92
2019-02-22T07:49:10.615Z,94.93
2019-02-22T07:51:38.896Z,92.68
2019-02-22T07:54:07.171Z,94.29
2019-02-22T07:56:35.457Z,93.67
2019-02-22T07:59:03.721Z,94.87
2019-02-22T08:01:32.017Z,92.72
2019-02-22T08:04:00.285Z,93.64
2019-02-22T08:06:28.617Z,93.57
2019-02-22T08:08:56.899Z,91.50
2019-02-22T08:11:25.192Z,91.17
2019-02-22T08:13:53.521Z,91.84
2019-02-22T08:16:21.786Z,91.74
2019-02-22T08:19:00.638Z,91.40
2019-02-22T08:21:20.081Z,90.37
2019-02-22T08:23:48.360Z,91.06
2019-02-22T08:26:16.667Z,90.30
2019-02-22T08:28:44.930Z,90.90
2019-02-22T08:31:13.265Z,93.38
2019-02-22T08:33:41.560Z,93.54
2019-02-22T08:36:09.837Z,90.44
2019-02-22T08:38:38.114Z,92.08
2019-02-22T08:41:06.401Z,92.63
2019-02-22T08:43:34.672Z,91.67
2019-02-22T08:46:02.992Z,91.81
2019-02-22T08:48:31.262Z,91.94
2019-02-22T08:50:59.542Z,89.33
2019-02-22T08:53:27.832Z,91.63
2019-02-22T08:55:56.106Z,90.62
2019-02-22T08:58:24.385Z,90.55
2019-02-22T09:00:52.669Z,87.81
2019-02-22T09:03:20.987Z,88.07
2019-02-22T09:05:49.253Z,87.29
2019-02-22T09:08:17.516Z,86.91
2019-02-22T09:10:45.807Z,86.15
2019-02-22T09:13:14.140Z,85.75
2019-02-22T09:15:42.359Z,86.33
2019-02-22T09:18:10.642Z,87.58
2019-02-22T09:20:38.923Z,87.30
2019-02-22T09:23:07.634Z,87.63
2019-02-22T09:25:36.052Z,86.33
2019-02-22T09:28:04.351Z,86.90
2019-02-22T09:30:32.714Z,86.41
2019-02-22T09:33:01.002Z,86.12
2019-02-22T09:35:29.279Z,85.42
2019-02-22T09:37:57.540Z,84.56
2019-02-22T09:40:25.817Z,82.26
2019-02-22T09:42:54.089Z,82.31
2019-02-22T09:45:24.459Z,82.53
2019-02-22T09:47:52.362Z,80.56
2019-02-22T09:50:20.640Z,79.06
2019-02-22T09:52:48.898Z,77.36
2019-02-22T09:55:17.162Z,77.32
2019-02-22T09:57:45.451Z,76.92
2019-02-22T10:00:16.703Z,75.84
2019-02-22T10:02:45.198Z,73.08
2019-02-22T10:05:13.582Z,73.76
2019-02-22T10:07:41.851Z,73.65
2019-02-22T10:10:10.932Z,72.50
2019-02-22T10:12:57.388Z,71.23
2019-02-22T10:15:31.433Z,71.26
2019-02-22T10:17:59.902Z,69.81
2019-02-22T10:20:28.160Z,69.22
2019-02-22T10:22:56.442Z,69.81
2019-02-22T10:25:24.743Z,69.12
2019-02-22T10:27:53.017Z,68.75
2019-02-22T10:30:21.357Z,68.06
2019-02-22T10:32:49.629Z,65.93
2019-02-22T10:35:17.904Z,65.82
2019-02-22T10:37:46.189Z,66.10
2019-02-22T10:40:14.466Z,64.69
2019-02-22T10:42:42.718Z,65.22
2019-02-22T10:45:11.493Z,62.60
2019-02-22T10:47:39.736Z,62.67
2019-02-22T10:50:09.362Z,62.20
2019-02-22T10:52:37.759Z,62.28
2019-02-22T10:55:08.529Z,59.96
2019-02-22T10:57:36.799Z,57.98
2019-02-22T11:00:08.559Z,57.06
2019-02-22T11:02:36.850Z,57.08
2019-02-22T11:05:05.497Z,57.13
2019-02-22T11:07:33.785Z,57.47
2019-02-22T11:10:02.080Z,58.35
2019-02-22T11:12:30.334Z,58.83
2019-02-22T11:14:58.644Z,59.25
2019-02-22T11:17:26.917Z,58.69
2019-02-22T11:19:55.187Z,58.27
2019-02-22T11:22:23.497Z,58.10
2019-02-22T11:24:51.765Z,57.65
2019-02-22T11:27:20.064Z,58.74
2019-02-22T11:29:49.448Z,58.59
2019-02-22T11:32:17.948Z,57.50
2019-02-22T11:34:46.301Z,57.35
2019-02-22T11:37:21.977Z,58.24
2019-02-22T11:39:50.438Z,59.23
2019-02-22T11:42:18.699Z,59.28
2019-02-22T11:44:46.995Z,58.52
2019-02-22T11:47:15.351Z,58.75
2019-02-22T11:49:43.635Z,59.50
2019-02-22T11:52:11.930Z,59.58
2019-02-22T11:54:40.186Z,61.22
2019-02-22T11:57:08.935Z,62.32
2019-02-22T11:59:37.288Z,63.04
2019-02-22T12:02:05.732Z,63.05
2019-02-22T12:04:33.994Z,64.49
2019-02-22T12:07:02.282Z,63.53
2019-02-22T12:09:30.546Z,64.28
2019-02-22T12:11:58.809Z,63.98
2019-02-22T12:14:27.100Z,65.95
2019-02-22T12:16:55.383Z,65.94
2019-02-22T12:19:23.713Z,65.25
2019-02-22T12:21:51.965Z,66.57
2019-02-22T12:24:20.248Z,66.42
2019-02-22T12:26:48.578Z,66.33
2019-02-22T12:29:16.791Z,67.29
2019-02-22T12:31:45.082Z,66.66
2019-02-22T12:34:13.430Z,66.54
2019-02-22T12:36:41.695Z,66.26
2019-02-22T12:39:09.961Z,65.51
2019-02-22T12:41:38.269Z,66.01
2019-02-22T12:44:06.539Z,66.09
2019-02-22T12:46:34.814Z,66.23
2019-02-22T12:49:03.120Z,66.57
2019-02-22T12:51:31.422Z,65.03
2019-02-22T12:53:59.715Z,65.50
2019-02-22T12:56:56.016Z,65.29
2019-02-22T12:58:58.008Z,64.92
2019-02-22T13:01:26.300Z,64.99
2019-02-22T13:03:54.573Z,64.09
2019-02-22T13:06:22.855Z,63.52
2019-02-22T13:08:51.113Z,63.78
2019-02-22T13:11:19.395Z,63.13
2019-02-22T13:13:47.673Z,64.55
2019-02-22T13:16:15.957Z,64.63
2019-02-22T13:18:44.313Z,64.79
2019-02-22T13:21:12.595Z,64.62
2019-02-22T13:23:40.861Z,64.72
2019-02-22T13:26:09.156Z,66.23
2019-02-22T13:28:37.434Z,64.14
2019-02-22T13:31:05.709Z,65.03
2019-02-22T13:33:33.997Z,63.65
2019-02-22T13:36:02.282Z,62.96
2019-02-22T13:38:30.564Z,62.80
2019-02-22T13:40:58.858Z,62.93
2019-02-22T13:43:27.123Z,62.28
2019-02-22T13:45:55.490Z,61.96
2019-02-22T13:48:23.771Z,63.60
2019-02-22T13:50:52.119Z,64.00
2019-02-22T13:53:20.477Z,63.10
2019-02-22T13:55:48.757Z,62.42
2019-02-22T13:58:18.690Z,62.63
2019-02-22T14:00:47.071Z,63.11
2019-02-22T14:03:15.352Z,63.80
2019-02-22T14:05:43.653Z,62.46
2019-02-22T14:08:11.949Z,64.01
2019-02-22T14:10:40.225Z,62.90
2019-02-22T14:13:08.495Z,62.79
2019-02-22T14:15:38.344Z,62.90
2019-02-22T14:18:09.457Z,62.87
2019-02-22T14:20:38.939Z,62.85
2019-02-22T14:23:09.606Z,63.63
2019-02-22T14:25:37.954Z,62.85
2019-02-22T14:28:06.216Z,63.79
2019-02-22T14:30:34.509Z,64.18
2019-02-22T14:33:04.385Z,63.50
2019-02-22T14:35:32.625Z,63.79
2019-02-22T14:38:02.041Z,63.93
2019-02-22T14:40:33.562Z,63.65
2019-02-22T14:43:01.833Z,64.30
2019-02-22T14:45:30.114Z,65.05
2019-02-22T14:47:58.388Z,63.85
2019-02-22T14:50:26.717Z,64.57
2019-02-22T14:52:55.003Z,63.36
2019-02-22T14:55:23.301Z,63.85
2019-02-22T14:57:51.577Z,63.30
2019-02-22T15:00:20.596Z,63.27
2019-02-22T15:02:48.887Z,62.72
2019-02-22T15:05:17.179Z,62.56
2019-02-22T15:07:45.441Z,63.75
2019-02-22T15:10:13.779Z,63.32
2019-02-22T15:12:42.141Z,61.64
2019-02-22T15:15:15.689Z,62.78
2019-02-22T15:17:48.647Z,62.45
2019-02-22T15:20:16.935Z,63.48
2019-02-22T15:22:45.210Z,63.41
2019-02-22T15:25:15.441Z,64.39
2019-02-22T15:27:43.786Z,63.36
2019-02-22T15:30:14.514Z,64.17
2019-02-22T15:32:42.802Z,64.42
2019-02-22T15:35:13.416Z,64.02
2019-02-22T15:37:43.335Z,63.89
2019-02-22T15:40:12.371Z,64.18
2019-02-22T15:42:40.775Z,64.24
2019-02-22T15:45:11.255Z,64.95
2019-02-22T15:47:39.555Z,64.03
2019-02-22T15:50:18.575Z,57.37
2019-02-22T15:52:48.221Z,55.31
2019-02-22T15:55:16.684Z,55.36
2019-02-22T15:57:44.978Z,54.71
2019-02-22T16:00:22.332Z,53.37
2019-02-22T16:02:50.744Z,53.31
2019-02-22T16:05:20.735Z,51.78
2019-02-22T16:07:49.149Z,51.35
2019-02-22T16:10:17.528Z,52.32
2019-02-22T16:12:45.885Z,52.48
2019-02-22T16:15:15.985Z,53.50
2019-02-22T16:17:44.259Z,52.32
2019-02-22T16:20:12.818Z,51.54
2019-02-22T16:22:41.091Z,51.47
2019-02-22T16:25:19.189Z,51.18
2019-02-22T16:27:39.558Z,51.07
2019-02-22T16:30:16.792Z,52.27
2019-02-22T16:32:45.174Z,51.45
2019-02-22T16:35:13.723Z,51.97
2019-02-22T16:37:42.013Z,51.15
2019-02-22T16:40:11.412Z,53.25
2019-02-22T16:42:39.665Z,51.72
2019-02-22T16:45:12.696Z,51.57
2019-02-22T16:47:40.955Z,52.15
2019-02-22T16:50:14.066Z,51.01
2019-02-22T16:52:45.013Z,51.03
2019-02-22T16:55:14.871Z,51.22
2019-02-22T16:57:43.120Z,51.88
2019-02-22T17:00:13.531Z,51.76
2019-02-22T17:02:41.800Z,51.49
2019-02-22T17:05:12.424Z,52.30
2019-02-22T17:07:40.718Z,52.95
2019-02-22T17:10:10.714Z,52.67
2019-02-22T17:12:39.059Z,52.71
2019-02-22T17:15:09.958Z,51.06
2019-02-22T17:17:38.258Z,51.05
2019-02-22T17:20:08.865Z,50.99
2019-02-22T17:22:37.154Z,51.03
2019-02-22T17:25:08.632Z,50.34
2019-02-22T17:27:36.893Z,50.50
2019-02-22T17:30:11.023Z,50.46
2019-02-22T17:32:40.137Z,51.64
2019-02-22T17:35:08.497Z,51.97
2019-02-22T17:37:36.803Z,51.41
2019-02-22T17:40:13.582Z,50.61
2019-02-22T17:42:41.928Z,50.15
2019-02-22T17:45:10.286Z,51.07
2019-02-22T17:47:38.557Z,51.68
2019-02-22T17:50:09.081Z,51.19
2019-02-22T17:52:37.428Z,50.87
2019-02-22T17:55:08.239Z,52.54
2019-02-22T17:57:36.530Z,51.54
2019-02-22T18:00:12.151Z,51.76
2019-02-22T18:02:40.425Z,51.30
2019-02-22T18:05:08.700Z,52.16
2019-02-22T18:07:36.997Z,52.16
2019-02-22T18:10:07.930Z,51.86
2019-02-22T18:12:36.220Z,52.79
2019-02-22T18:15:06.739Z,53.56
2019-02-22T18:17:35.011Z,53.28
2019-02-22T18:20:03.725Z,52.09
2019-02-22T18:22:32.009Z,52.69
2019-02-22T18:25:00.396Z,52.73
2019-02-22T18:27:28.617Z,51.11
2019-02-22T18:29:56.874Z,51.52
2019-02-22T18:32:25.153Z,52.11
2019-02-22T18:34:53.408Z,51.76
2019-02-22T18:37:21.708Z,52.44
2019-02-22T18:39:49.968Z,51.39
2019-02-22T18:42:18.321Z,52.55
2019-02-22T18:44:46.608Z,52.48
2019-02-22T18:47:19.782Z,52.16
2019-02-22T18:49:48.078Z,52.81
2019-02-22T18:52:16.317Z,52.81
2019-02-22T18:54:46.304Z,52.58
2019-02-22T18:57:14.659Z,53.34
2019-02-22T18:59:42.999Z,52.48
2019-02-22T19:02:11.288Z,51.82
2019-02-22T19:04:39.554Z,51.97
2019-02-22T19:07:07.831Z,53.29
2019-02-22T19:09:36.100Z,53.07
2019-02-22T19:12:04.447Z,53.04
2019-02-22T19:14:32.744Z,54.23
2019-02-22T19:17:01.023Z,52.75
2019-02-22T19:19:29.284Z,55.40
2019-02-22T19:21:57.546Z,53.38
2019-02-22T19:24:25.901Z,55.80
2019-02-22T19:26:56.934Z,55.58
2019-02-22T19:29:27.090Z,56.16
2019-02-22T19:31:55.376Z,55.18
2019-02-22T19:34:23.651Z,55.14
2019-02-22T19:36:51.943Z,55.42
2019-02-22T19:39:20.205Z,55.22
2019-02-22T19:41:48.468Z,55.02
2019-02-22T19:44:16.769Z,55.22
2019-02-22T19:46:45.032Z,55.33
2019-02-22T19:49:13.314Z,55.15
2019-02-22T19:51:41.609Z,55.65
2019-02-22T19:54:09.896Z,55.60
2019-02-22T19:56:38.200Z,54.79
2019-02-22T19:59:06.477Z,55.85
2019-02-22T20:01:34.757Z,55.16
2019-02-22T20:04:03.021Z,56.53
2019-02-22T20:06:31.296Z,55.11
2019-02-22T20:08:59.591Z,54.88
2019-02-22T20:11:27.866Z,55.73
2019-02-22T20:13:56.132Z,54.85
2019-02-22T20:16:24.424Z,56.71
2019-02-22T20:18:52.713Z,56.65
2019-02-22T20:21:20.984Z,55.39
2019-02-22T20:23:49.292Z,57.89
2019-02-22T20:26:17.567Z,55.74
2019-02-22T20:28:45.861Z,56.35
2019-02-22T20:31:20.233Z,55.31
2019-02-22T20:33:44.225Z,55.86
2019-02-22T20:36:12.489Z,56.16
2019-02-22T20:38:40.814Z,55.28
2019-02-22T20:41:09.112Z,55.63
2019-02-22T20:43:37.490Z,56.45
2019-02-22T20:46:05.852Z,56.62
2019-02-22T20:48:34.154Z,56.06
2019-02-22T20:51:02.407Z,56.26
2019-02-22T20:53:30.671Z,55.99
2019-02-22T20:55:58.960Z,56.94
2019-02-22T20:58:27.249Z,55.62
2019-02-22T21:00:55.526Z,56.04
2019-02-22T21:03:23.803Z,55.46
2019-02-22T21:05:52.107Z,55.34
2019-02-22T21:08:20.445Z,55.46
2019-02-22T21:10:48.735Z,56.14
2019-02-22T21:13:16.999Z,56.61
2019-02-22T21:15:45.298Z,55.78
2019-02-22T21:18:16.532Z,56.24
2019-02-22T21:20:43.645Z,56.56
2019-02-22T21:23:12.005Z,56.65
2019-02-22T21:25:40.302Z,55.97
2019-02-22T21:28:08.576Z,55.95
2019-02-22T21:30:36.975Z,55.92
2019-02-22T21:33:06.920Z,57.36
2019-02-22T21:35:35.201Z,57.81
2019-02-22T21:38:03.465Z,57.47
2019-02-22T21:40:31.744Z,58.09
2019-02-22T21:43:00.002Z,56.87
2019-02-22T21:45:28.346Z,56.52
2019-02-22T21:47:56.623Z,56.97
2019-02-22T21:50:24.903Z,57.32
2019-02-22T21:52:53.182Z,57.79
2019-02-22T21:55:21.470Z,58.58
2019-02-22T21:57:49.737Z,58.72
2019-02-22T22:00:20.932Z,59.19
2019-02-22T22:02:49.205Z,59.20
2019-02-22T22:05:17.495Z,59.12
2019-02-22T22:07:45.795Z,59.31
2019-02-22T22:10:14.055Z,58.74
2019-02-22T22:12:42.346Z,57.79
2019-02-22T22:15:12.825Z,57.37
2019-02-22T22:17:41.092Z,57.83
2019-02-22T22:20:10.212Z,57.23
2019-02-22T22:22:38.549Z,57.20
2019-02-22T22:25:14.901Z,56.95
2019-02-22T22:27:43.185Z,56.72
2019-02-22T22:30:13.267Z,56.81
2019-02-22T22:32:41.530Z,56.75
2019-02-22T22:35:13.989Z,56.95
2019-02-22T22:37:42.319Z,57.14
2019-02-22T22:40:11.170Z,57.83
2019-02-22T22:42:39.450Z,57.08
2019-02-22T22:45:12.981Z,57.25
2019-02-22T22:47:41.347Z,56.35
2019-02-22T22:50:14.286Z,56.63
2019-02-22T22:52:42.575Z,56.53
2019-02-22T22:55:11.326Z,56.95
2019-02-22T22:57:39.658Z,56.90
2019-02-22T23:00:20.979Z,56.91
2019-02-22T23:02:49.264Z,56.88
2019-02-22T23:05:17.576Z,56.35
2019-02-22T23:07:45.918Z,55.84
2019-02-22T23:10:15.919Z,55.19
2019-02-22T23:12:44.356Z,55.67
2019-02-22T23:15:13.055Z,55.50
2019-02-22T23:17:41.319Z,54.97
2019-02-22T23:20:09.643Z,55.08
2019-02-22T23:22:37.946Z,54.46
2019-02-22T23:25:06.283Z,55.26
2019-02-22T23:27:34.544Z,54.87
2019-02-22T23:30:02.889Z,55.39
2019-02-22T23:32:31.176Z,55.70
2019-02-22T23:34:59.469Z,55.51
2019-02-22T23:37:27.818Z,55.56
2019-02-22T23:39:56.110Z,55.38
2019-02-22T23:42:24.379Z,55.53
2019-02-22T23:44:52.726Z,54.79
2019-02-22T23:47:20.997Z,55.63
2019-02-22T23:49:49.276Z,54.51
2019-02-22T23:52:17.538Z,55.05
2019-02-22T23:54:45.800Z,55.76
2019-02-22T23:57:14.098Z,54.61
2019-02-22T23:59:42.379Z,53.92
